Time;durP1;ratioP1;P1;durP2;ratioP2;P2;SDS_P1;SDS_P2;PMS_P1;PMS_P2;Temp;Humidity;BMP_temperature;BMP_pressure;BME280_temperature;BME280_humidity;BME280_pressure;Samples;Min_cycle;Max_cycle;Signal;HPM_P1;HPM_P2
2022/11/07 00:01:28;;;;;;;4.10;3.70;;;10.60;99.90;;;;;;5067345;28;20183;-89
2022/11/07 00:03:54;;;;;;;15.93;14.23;;;10.60;99.90;;;;;;5048650;28;20208;-90
2022/11/07 00:06:21;;;;;;;3.87;3.57;;;10.70;99.90;;;;;;5044072;28;20219;-88
2022/11/07 00:08:48;;;;;;;5.53;3.23;;;10.70;99.90;;;;;;5055894;28;20211;-89
2022/11/07 00:11:14;;;;;;;5.00;4.60;;;10.70;99.90;;;;;;5060347;28;20522;-90
2022/11/07 00:13:40;;;;;;;3.90;3.60;;;10.60;99.90;;;;;;5061078;28;20186;-90
2022/11/07 00:16:09;;;;;;;4.20;3.80;;;10.50;99.90;;;;;;5058901;28;20221;-89
2022/11/07 00:18:35;;;;;;;3.77;3.33;;;10.60;99.90;;;;;;5052834;28;20290;-90
2022/11/07 00:21:08;;;;;;;3.70;3.40;;;10.50;99.90;;;;;;5060698;28;20215;-89
2022/11/07 00:23:35;;;;;;;4.73;4.33;;;10.50;99.90;;;;;;5050801;28;20219;-89
2022/11/07 00:26:06;;;;;;;5.23;4.73;;;10.60;99.90;;;;;;5051016;28;20190;-89
2022/11/07 00:28:36;;;;;;;5.93;5.23;;;10.80;99.90;;;;;;5043787;28;20694;-89
2022/11/07 00:31:03;;;;;;;4.00;3.47;;;10.90;99.90;;;;;;5044968;28;20280;-89
2022/11/07 00:33:29;;;;;;;4.23;3.17;;;10.90;99.90;;;;;;5043428;28;20190;-90
2022/11/07 00:35:54;;;;;;;3.60;3.30;;;10.90;99.90;;;;;;5051305;28;20202;-90
2022/11/07 00:38:20;;;;;;;3.33;3.13;;;10.80;99.90;;;;;;5052740;28;20229;-90
2022/11/07 00:41:00;;;;;;;2.93;2.73;;;10.90;99.90;;;;;;5056007;28;20187;-90
2022/11/07 00:43:27;;;;;;;3.10;2.80;;;10.90;99.90;;;;;;5053463;28;20186;-90
2022/11/07 00:45:52;;;;;;;4.53;3.40;;;10.80;99.90;;;;;;5038568;28;20217;-90
2022/11/07 00:48:18;;;;;;;3.40;3.10;;;10.70;99.90;;;;;;5033997;28;20270;-90
2022/11/07 00:50:44;;;;;;;3.40;3.10;;;10.70;99.90;;;;;;5056813;28;20198;-90
2022/11/07 00:53:10;;;;;;;3.30;3.00;;;10.70;99.90;;;;;;5037415;28;20275;-91
2022/11/07 00:55:35;;;;;;;3.30;3.00;;;10.90;99.90;;;;;;5053346;28;20212;-90
2022/11/07 00:58:01;;;;;;;3.63;2.80;;;10.90;99.90;;;;;;5067155;28;20223;-92
2022/11/07 01:00:27;;;;;;;2.87;2.67;;;10.90;99.90;;;;;;5075129;28;20210;-91
2022/11/07 01:05:38;;;;;;;3.13;2.80;;;11.10;99.90;;;;;;5043343;28;20200;-89
2022/11/07 01:08:04;;;;;;;3.30;3.00;;;11.30;99.90;;;;;;5055313;28;20237;-89
2022/11/07 01:10:30;;;;;;;2.73;2.53;;;11.20;99.90;;;;;;5051685;28;20481;-90
2022/11/07 01:12:56;;;;;;;2.70;2.50;;;11.20;99.90;;;;;;5042323;28;20211;-89
2022/11/07 01:15:22;;;;;;;2.63;2.43;;;11.20;99.90;;;;;;5037185;28;20191;-90
2022/11/07 01:17:47;;;;;;;3.20;2.70;;;11.30;99.90;;;;;;5052494;28;20236;-90
2022/11/07 01:20:13;;;;;;;3.33;2.90;;;11.40;99.90;;;;;;5033685;28;20375;-90
2022/11/07 01:22:39;;;;;;;3.00;2.70;;;11.40;99.90;;;;;;5061765;28;20645;-90
2022/11/07 01:25:05;;;;;;;2.97;2.67;;;11.40;99.90;;;;;;5053548;28;20226;-90
2022/11/07 01:27:31;;;;;;;2.70;2.50;;;11.40;99.90;;;;;;5045135;28;20276;-90
2022/11/07 01:29:57;;;;;;;5.83;4.90;;;11.40;99.90;;;;;;5037666;28;20294;-90
2022/11/07 01:32:23;;;;;;;3.17;2.90;;;11.20;99.90;;;;;;5042244;28;20212;-89
2022/11/07 01:34:48;;;;;;;4.33;2.70;;;11.20;99.90;;;;;;5040976;28;20187;-90
2022/11/07 01:37:14;;;;;;;2.70;2.50;;;11.20;99.90;;;;;;5046832;28;20216;-90
2022/11/07 01:39:40;;;;;;;2.43;2.30;;;11.30;99.90;;;;;;5050890;28;20558;-90
2022/11/07 01:42:05;;;;;;;2.80;2.60;;;11.50;99.90;;;;;;5045342;28;20195;-90
2022/11/07 01:44:40;;;;;;;3.70;2.77;;;11.50;99.90;;;;;;5028871;28;20311;-90
2022/11/07 01:47:07;;;;;;;2.90;2.60;;;11.40;99.90;;;;;;5042997;28;20233;-90
2022/11/07 01:49:40;;;;;;;3.27;2.93;;;11.30;99.90;;;;;;5042089;28;20203;-89
2022/11/07 01:52:12;;;;;;;6.83;2.77;;;11.30;99.90;;;;;;5043254;28;20187;-90
2022/11/07 01:54:48;;;;;;;3.40;2.93;;;11.30;99.90;;;;;;5024935;28;20663;-90
2022/11/07 01:57:28;;;;;;;2.70;2.50;;;11.30;99.90;;;;;;5054840;28;20210;-89
2022/11/07 01:59:57;;;;;;;2.70;2.50;;;11.40;99.90;;;;;;5041104;28;20200;-90
2022/11/07 02:02:27;;;;;;;3.43;3.13;;;11.30;99.90;;;;;;5053061;28;20217;-90
2022/11/07 02:04:56;;;;;;;2.60;2.40;;;11.50;99.90;;;;;;5058300;28;20226;-90
2022/11/07 02:07:22;;;;;;;2.90;2.50;;;11.40;99.90;;;;;;5036056;28;20211;-90
2022/11/07 02:09:51;;;;;;;2.77;2.47;;;11.30;99.90;;;;;;5033167;28;20225;-90
2022/11/07 02:12:17;;;;;;;2.53;2.30;;;11.50;99.90;;;;;;5053748;28;20187;-90
2022/11/07 02:14:43;;;;;;;2.80;2.60;;;11.50;99.90;;;;;;5058351;28;20195;-91
2022/11/07 02:17:11;;;;;;;2.20;2.10;;;11.30;99.90;;;;;;5043939;28;20212;-89
2022/11/07 02:19:43;;;;;;;2.90;2.70;;;11.40;99.90;;;;;;5058165;28;20789;-90
2022/11/07 02:22:18;;;;;;;2.80;2.60;;;11.50;99.90;;;;;;5028266;28;20667;-90
2022/11/07 02:24:45;;;;;;;2.97;2.53;;;11.50;99.90;;;;;;5041170;28;20188;-91
2022/11/07 02:27:14;;;;;;;2.80;2.60;;;11.30;99.90;;;;;;5053675;28;20211;-90
2022/11/07 02:29:42;;;;;;;3.20;2.63;;;11.30;99.90;;;;;;5061309;28;20195;-90
2022/11/07 02:32:10;;;;;;;3.03;2.73;;;11.40;99.90;;;;;;5057761;28;20184;-90
2022/11/07 02:34:36;;;;;;;3.07;2.80;;;11.40;99.90;;;;;;5051625;28;20215;-89
2022/11/07 02:37:21;;;;;;;3.00;2.80;;;11.30;99.90;;;;;;5050051;28;20555;-89
2022/11/07 02:39:47;;;;;;;3.13;2.77;;;11.40;99.90;;;;;;5039472;28;20203;-90
2022/11/07 02:42:13;;;;;;;2.97;2.57;;;11.20;99.90;;;;;;5032124;28;20200;-90
2022/11/07 02:44:39;;;;;;;3.70;2.70;;;11.20;99.90;;;;;;5056416;28;20218;-90
2022/11/07 02:47:04;;;;;;;3.30;3.00;;;11.40;99.90;;;;;;5037015;28;20628;-89
2022/11/07 02:49:30;;;;;;;3.07;2.83;;;11.30;99.90;;;;;;5053990;28;20235;-90
2022/11/07 02:51:56;;;;;;;2.70;2.50;;;11.30;99.90;;;;;;5044565;28;20225;-90
2022/11/07 02:54:22;;;;;;;3.80;2.80;;;11.30;99.90;;;;;;5036475;28;20216;-90
2022/11/07 02:56:47;;;;;;;3.07;2.87;;;11.20;99.90;;;;;;5056959;28;20198;-90
2022/11/07 02:59:13;;;;;;;2.80;2.60;;;11.30;99.90;;;;;;5034486;28;20286;-90
2022/11/07 03:01:38;;;;;;;3.20;2.90;;;11.40;99.90;;;;;;5055420;28;20195;-90
2022/11/07 03:04:04;;;;;;;4.93;3.17;;;11.50;99.90;;;;;;5057358;28;20226;-90
2022/11/07 03:06:30;;;;;;;2.93;2.70;;;11.50;99.90;;;;;;5048613;28;20242;-90
2022/11/07 03:08:55;;;;;;;3.00;2.80;;;11.50;99.90;;;;;;5050534;28;20222;-90
2022/11/07 03:11:21;;;;;;;3.17;2.87;;;11.50;99.90;;;;;;5051327;28;20273;-90
2022/11/07 03:13:48;;;;;;;2.80;2.60;;;11.40;99.90;;;;;;5031484;28;20191;-90
2022/11/07 03:16:16;;;;;;;4.07;3.10;;;11.40;99.90;;;;;;5056605;28;20658;-90
2022/11/07 03:18:41;;;;;;;3.03;2.83;;;11.40;99.90;;;;;;5059808;28;20248;-89
2022/11/07 03:21:07;;;;;;;3.40;3.10;;;11.40;99.90;;;;;;5043012;28;20449;-90
2022/11/07 03:23:34;;;;;;;3.47;2.90;;;11.40;99.90;;;;;;5056313;28;20276;-89
2022/11/07 03:25:59;;;;;;;3.50;3.20;;;11.50;99.90;;;;;;5052135;28;20630;-90
2022/11/07 03:28:25;;;;;;;3.33;3.03;;;11.50;99.90;;;;;;5059605;28;20293;-90
2022/11/07 03:30:51;;;;;;;3.20;3.00;;;11.40;99.90;;;;;;5054909;28;20179;-90
2022/11/07 03:33:17;;;;;;;3.30;3.00;;;11.50;99.90;;;;;;5047024;28;20285;-91
2022/11/07 03:35:43;;;;;;;4.13;3.10;;;11.30;99.90;;;;;;5054284;28;20232;-90
2022/11/07 03:38:09;;;;;;;3.33;3.03;;;11.40;99.90;;;;;;5036793;28;20226;-90
2022/11/07 03:40:35;;;;;;;3.63;3.07;;;11.50;99.90;;;;;;5058147;28;20210;-90
2022/11/07 03:43:01;;;;;;;3.37;3.07;;;11.20;99.90;;;;;;5056845;28;20191;-91
2022/11/07 03:45:27;;;;;;;3.40;3.10;;;11.30;99.90;;;;;;5051540;28;20197;-90
2022/11/07 03:47:53;;;;;;;3.23;2.93;;;11.30;99.90;;;;;;5038523;28;20661;-90
2022/11/07 03:50:20;;;;;;;4.10;3.23;;;11.20;99.90;;;;;;5042226;28;20182;-90
2022/11/07 03:52:47;;;;;;;3.63;3.20;;;11.20;99.90;;;;;;5039534;28;20199;-90
2022/11/07 03:55:17;;;;;;;3.70;3.27;;;11.30;99.90;;;;;;5035955;28;20186;-90
2022/11/07 03:57:43;;;;;;;4.40;3.17;;;11.20;99.90;;;;;;5037794;28;20207;-90
2022/11/07 04:00:10;;;;;;;4.57;3.17;;;11.20;99.90;;;;;;5031206;28;20190;-90
2022/11/07 04:02:36;;;;;;;3.00;2.80;;;11.10;99.90;;;;;;5034863;28;20188;-90
2022/11/07 04:05:02;;;;;;;3.90;3.50;;;11.10;99.90;;;;;;5042425;28;20189;-91
2022/11/07 04:07:28;;;;;;;4.57;3.67;;;11.00;99.90;;;;;;5070644;28;20221;-91
2022/11/07 04:09:53;;;;;;;3.27;3.00;;;11.00;99.90;;;;;;5046756;28;20248;-91
2022/11/07 04:17:48;;;;;;;4.03;3.27;;;11.00;99.90;;;;;;5064785;28;20218;-91
2022/11/07 04:20:14;;;;;;;4.67;3.03;;;11.00;99.90;;;;;;5066280;28;20186;-91
2022/11/07 04:22:39;;;;;;;3.43;3.13;;;11.10;99.90;;;;;;5070075;28;20201;-91
2022/11/07 04:25:06;;;;;;;3.50;3.00;;;11.10;99.90;;;;;;5048836;28;20199;-91
2022/11/07 04:27:45;;;;;;;3.53;3.13;;;11.10;99.90;;;;;;5069546;28;20207;-90
2022/11/07 04:30:22;;;;;;;3.43;3.13;;;11.10;99.90;;;;;;5069345;28;20189;-91
2022/11/07 04:32:56;;;;;;;4.23;3.20;;;11.10;99.90;;;;;;5064352;28;20190;-91
2022/11/07 04:35:25;;;;;;;3.10;2.90;;;11.00;99.90;;;;;;5064162;28;20185;-91
2022/11/07 04:37:51;;;;;;;3.70;2.97;;;11.00;99.90;;;;;;5047155;28;20214;-91
2022/11/07 04:40:17;;;;;;;3.07;2.67;;;11.20;99.90;;;;;;5052909;28;20204;-91
2022/11/07 04:42:44;;;;;;;3.43;3.20;;;11.30;99.90;;;;;;5066515;28;20182;-91
2022/11/07 04:45:11;;;;;;;2.70;2.50;;;11.30;99.90;;;;;;5055046;28;20183;-91
2022/11/07 04:47:38;;;;;;;3.23;2.93;;;11.30;99.90;;;;;;5067293;28;20275;-90
2022/11/07 04:50:06;;;;;;;3.50;3.20;;;11.30;99.90;;;;;;5063169;28;20181;-91
2022/11/07 04:52:32;;;;;;;3.93;2.93;;;11.20;99.90;;;;;;5043141;28;20190;-91
2022/11/07 04:54:58;;;;;;;3.87;3.17;;;11.30;99.90;;;;;;5038680;28;20252;-90
2022/11/07 04:57:23;;;;;;;4.27;3.40;;;11.20;99.90;;;;;;5051187;28;20194;-90
2022/11/07 04:59:49;;;;;;;3.13;2.73;;;11.40;99.90;;;;;;5060555;28;20546;-90
2022/11/07 05:02:15;;;;;;;3.43;3.10;;;11.50;99.90;;;;;;5043150;28;20200;-90
2022/11/07 05:04:40;;;;;;;4.00;2.97;;;11.50;99.90;;;;;;5052036;28;20215;-90
2022/11/07 05:07:07;;;;;;;4.67;3.30;;;11.50;99.90;;;;;;5063623;28;20310;-91
2022/11/07 05:09:33;;;;;;;4.17;3.00;;;11.40;99.90;;;;;;5063893;28;20230;-90
2022/11/07 05:11:59;;;;;;;3.93;3.10;;;11.40;99.90;;;;;;5067601;28;20195;-91
2022/11/07 05:14:25;;;;;;;3.00;2.70;;;11.50;99.90;;;;;;5066770;28;20271;-90
2022/11/07 05:16:53;;;;;;;3.77;3.03;;;11.50;99.90;;;;;;5039802;28;20269;-91
2022/11/07 05:19:19;;;;;;;4.40;3.27;;;11.50;99.90;;;;;;5063872;28;20219;-90
2022/11/07 05:21:46;;;;;;;5.13;3.10;;;11.50;99.90;;;;;;5042805;28;20275;-90
2022/11/07 05:24:13;;;;;;;2.90;2.70;;;11.30;99.90;;;;;;5034090;28;20199;-91
2022/11/07 05:26:39;;;;;;;4.27;3.40;;;11.40;99.90;;;;;;5049730;28;20210;-89
2022/11/07 05:29:07;;;;;;;4.03;3.20;;;11.30;99.90;;;;;;5044598;28;20211;-89
2022/11/07 05:31:33;;;;;;;3.77;3.13;;;11.30;99.90;;;;;;5046260;28;20187;-89
2022/11/07 05:33:59;;;;;;;3.10;2.77;;;11.30;99.90;;;;;;5051999;28;20222;-90
2022/11/07 05:36:25;;;;;;;3.70;2.93;;;11.40;99.90;;;;;;5050720;28;20253;-89
2022/11/07 05:38:52;;;;;;;3.40;3.10;;;11.30;99.90;;;;;;5033066;28;20222;-90
2022/11/07 05:41:20;;;;;;;5.30;3.43;;;11.50;99.90;;;;;;5062191;28;20270;-89
2022/11/07 05:43:46;;;;;;;4.07;3.40;;;11.50;99.90;;;;;;5038816;28;20190;-89
2022/11/07 05:46:13;;;;;;;4.33;3.00;;;11.60;99.90;;;;;;5063491;28;20186;-90
2022/11/07 05:48:38;;;;;;;5.73;5.13;;;11.50;99.90;;;;;;5057411;28;20203;-90
2022/11/07 05:51:05;;;;;;;7.77;5.23;;;11.50;99.90;;;;;;5036384;28;20210;-88
2022/11/07 05:53:32;;;;;;;3.27;2.93;;;11.50;99.90;;;;;;5053257;28;20206;-89
2022/11/07 05:55:57;;;;;;;3.70;3.00;;;11.60;99.90;;;;;;5036572;28;20216;-90
2022/11/07 05:58:24;;;;;;;3.57;3.13;;;11.60;99.90;;;;;;5039898;28;20222;-89
2022/11/07 06:00:49;;;;;;;4.00;3.17;;;11.50;99.90;;;;;;5052485;28;20688;-89
2022/11/07 06:03:18;;;;;;;3.10;2.80;;;11.40;99.90;;;;;;5030447;28;20198;-89
2022/11/07 06:05:44;;;;;;;5.33;3.30;;;11.20;99.90;;;;;;5050941;28;20199;-90
2022/11/07 06:08:12;;;;;;;3.80;2.90;;;11.30;99.90;;;;;;5052451;28;20219;-91
2022/11/07 06:10:39;;;;;;;3.47;3.03;;;11.20;99.90;;;;;;5066876;28;20186;-89
2022/11/07 06:13:07;;;;;;;4.23;2.93;;;11.30;99.90;;;;;;5059717;28;20298;-89
2022/11/07 06:15:34;;;;;;;3.53;3.23;;;11.50;99.90;;;;;;5056704;28;20556;-90
2022/11/07 06:18:02;;;;;;;3.77;2.83;;;11.50;99.90;;;;;;5044935;28;20215;-90
2022/11/07 06:20:29;;;;;;;3.80;3.50;;;11.70;99.90;;;;;;5058955;28;20206;-90
2022/11/07 06:22:59;;;;;;;3.80;3.10;;;11.70;99.90;;;;;;5059600;28;20185;-90
2022/11/07 06:25:26;;;;;;;3.80;3.30;;;11.70;99.90;;;;;;5032280;28;20746;-90
2022/11/07 06:27:52;;;;;;;5.33;2.63;;;11.60;99.90;;;;;;5058521;28;20285;-90
2022/11/07 06:30:18;;;;;;;3.43;3.10;;;11.60;99.90;;;;;;5056241;28;20209;-90
2022/11/07 06:32:44;;;;;;;3.03;2.83;;;11.70;99.90;;;;;;5035727;28;20187;-90
2022/11/07 06:35:11;;;;;;;5.73;2.93;;;11.60;99.90;;;;;;5058856;28;20222;-90
2022/11/07 06:37:38;;;;;;;3.43;3.10;;;11.60;99.90;;;;;;5056815;28;20214;-90
2022/11/07 06:40:04;;;;;;;3.23;2.87;;;11.50;99.90;;;;;;5059769;28;20208;-90
2022/11/07 06:42:31;;;;;;;3.83;3.00;;;11.60;99.90;;;;;;5040978;28;20199;-89
2022/11/07 06:44:57;;;;;;;3.97;2.70;;;11.60;99.90;;;;;;5041860;28;20656;-90
2022/11/07 06:47:23;;;;;;;6.70;3.33;;;11.60;99.90;;;;;;5043215;28;20294;-90
2022/11/07 06:49:48;;;;;;;3.47;2.90;;;11.50;99.90;;;;;;5035029;28;20195;-87
2022/11/07 06:52:15;;;;;;;4.40;3.07;;;11.60;99.90;;;;;;5028974;28;20203;-89
2022/11/07 06:54:42;;;;;;;5.00;2.90;;;11.70;99.90;;;;;;5027611;28;20192;-89
2022/11/07 06:57:08;;;;;;;3.07;2.77;;;11.70;99.90;;;;;;5036841;28;20330;-90
2022/11/07 06:59:34;;;;;;;3.10;2.73;;;11.60;99.90;;;;;;5035320;28;20223;-89
2022/11/07 07:02:00;;;;;;;6.07;3.83;;;11.60;99.90;;;;;;5061950;28;20227;-90
2022/11/07 07:04:26;;;;;;;6.87;3.10;;;11.60;99.90;;;;;;5061073;28;20619;-89
2022/11/07 07:06:51;;;;;;;4.23;3.30;;;11.50;99.90;;;;;;5044110;28;20254;-90
2022/11/07 07:09:17;;;;;;;4.67;3.03;;;11.60;99.90;;;;;;5053605;28;20211;-90
2022/11/07 07:11:44;;;;;;;3.37;3.03;;;11.40;99.90;;;;;;5052324;28;20186;-88
2022/11/07 07:14:10;;;;;;;5.80;2.87;;;11.50;99.90;;;;;;5057268;28;20207;-89
2022/11/07 07:16:36;;;;;;;3.47;2.60;;;11.40;99.90;;;;;;5044966;28;20191;-90
2022/11/07 07:19:02;;;;;;;4.87;3.17;;;11.40;99.90;;;;;;5046876;28;20219;-90
2022/11/07 07:21:29;;;;;;;3.73;3.00;;;11.30;99.90;;;;;;5034093;28;20203;-90
2022/11/07 07:23:55;;;;;;;3.67;2.83;;;11.20;99.90;;;;;;5061366;28;20203;-90
2022/11/07 07:26:21;;;;;;;5.33;2.70;;;11.30;99.90;;;;;;5043055;28;20190;-89
2022/11/07 07:28:48;;;;;;;7.67;2.87;;;11.50;99.90;;;;;;5035190;28;20218;-88
2022/11/07 07:31:13;;;;;;;6.53;3.20;;;11.60;99.90;;;;;;5055901;28;20183;-89
2022/11/07 07:33:44;;;;;;;3.00;2.77;;;11.70;99.90;;;;;;5037368;28;20529;-89
2022/11/07 07:36:12;;;;;;;5.27;2.87;;;11.80;99.90;;;;;;5029667;28;20187;-89
2022/11/07 07:38:39;;;;;;;3.30;2.73;;;11.80;99.90;;;;;;5053643;28;20287;-88
2022/11/07 07:41:06;;;;;;;4.60;2.97;;;11.80;99.90;;;;;;5024728;28;20184;-89
2022/11/07 07:43:34;;;;;;;2.80;2.60;;;11.80;99.90;;;;;;5047655;28;20259;-89
2022/11/07 07:46:02;;;;;;;3.83;2.90;;;11.80;99.90;;;;;;5041246;28;20193;-89
2022/11/07 07:48:30;;;;;;;4.40;3.07;;;11.90;99.90;;;;;;5033345;28;20224;-89
2022/11/07 07:50:56;;;;;;;4.47;3.00;;;12.00;99.90;;;;;;5050653;28;20654;-89
2022/11/07 07:53:23;;;;;;;5.37;3.07;;;12.00;99.90;;;;;;5051931;28;20204;-89
2022/11/07 07:55:50;;;;;;;4.30;3.03;;;11.90;99.90;;;;;;5038875;28;20412;-89
2022/11/07 07:58:17;;;;;;;3.13;2.83;;;12.00;99.90;;;;;;5037538;28;20216;-89
2022/11/07 08:00:43;;;;;;;3.63;2.47;;;12.10;99.90;;;;;;5042629;28;20205;-89
2022/11/07 08:03:11;;;;;;;4.03;3.07;;;12.00;99.90;;;;;;5043280;28;20184;-89
2022/11/07 08:05:38;;;;;;;4.50;2.73;;;12.10;99.90;;;;;;5047181;28;20193;-89
2022/11/07 08:08:06;;;;;;;4.80;2.73;;;12.20;99.90;;;;;;5039004;28;20239;-89
2022/11/07 08:10:33;;;;;;;3.30;3.00;;;12.10;99.90;;;;;;5034145;28;20194;-90
2022/11/07 08:13:00;;;;;;;4.03;2.87;;;12.20;99.90;;;;;;5052351;28;20184;-89
2022/11/07 08:15:27;;;;;;;7.27;3.43;;;12.30;99.90;;;;;;5031965;28;20541;-89
2022/11/07 08:17:53;;;;;;;3.40;3.07;;;12.20;99.90;;;;;;5046802;28;20207;-89
2022/11/07 08:20:24;;;;;;;5.03;3.03;;;12.20;99.90;;;;;;5046199;28;20188;-89
2022/11/07 08:22:58;;;;;;;5.33;2.63;;;12.50;99.90;;;;;;5047215;28;20601;-88
2022/11/07 08:25:24;;;;;;;3.80;2.80;;;12.50;99.90;;;;;;5045872;28;20184;-89
2022/11/07 08:27:52;;;;;;;4.20;3.00;;;12.60;99.90;;;;;;5039159;28;20227;-89
2022/11/07 08:30:19;;;;;;;3.80;2.90;;;12.60;99.90;;;;;;5048623;28;20700;-89
2022/11/07 08:32:46;;;;;;;6.13;3.30;;;12.40;99.90;;;;;;5041971;28;20191;-89
2022/11/07 08:35:12;;;;;;;7.53;3.20;;;12.30;99.90;;;;;;5036797;28;20185;-89
2022/11/07 08:37:38;;;;;;;6.97;3.27;;;12.40;99.90;;;;;;5042605;28;20592;-89
2022/11/07 08:40:05;;;;;;;9.80;3.20;;;12.40;99.90;;;;;;5045268;28;20191;-89
2022/11/07 08:42:32;;;;;;;4.63;2.87;;;12.30;99.90;;;;;;5030518;28;20194;-89
2022/11/07 08:44:59;;;;;;;3.10;2.57;;;12.70;99.90;;;;;;5032873;28;20200;-89
2022/11/07 08:47:27;;;;;;;5.33;3.20;;;12.70;99.90;;;;;;5047473;28;20220;-89
2022/11/07 08:49:53;;;;;;;6.03;2.87;;;12.80;99.90;;;;;;5060686;28;20195;-89
2022/11/07 08:52:19;;;;;;;6.50;3.40;;;12.80;99.90;;;;;;5046981;28;20612;-89
2022/11/07 08:54:46;;;;;;;3.43;2.87;;;12.80;99.90;;;;;;5045080;28;20216;-90
2022/11/07 08:57:13;;;;;;;5.40;3.00;;;12.80;99.90;;;;;;5048434;28;20192;-88
2022/11/07 08:59:39;;;;;;;4.53;2.83;;;12.80;99.90;;;;;;5038934;28;20200;-89
2022/11/07 09:02:06;;;;;;;5.87;3.07;;;13.00;98.60;;;;;;5032445;28;20211;-89
2022/11/07 09:04:32;;;;;;;4.17;2.70;;;13.00;99.50;;;;;;5058411;28;20189;-89
2022/11/07 09:06:59;;;;;;;3.33;2.90;;;13.00;99.60;;;;;;5047596;28;20364;-89
2022/11/07 09:09:27;;;;;;;6.73;2.70;;;13.00;98.90;;;;;;5041354;28;20216;-87
2022/11/07 09:11:54;;;;;;;3.33;2.70;;;13.10;98.20;;;;;;5045237;28;20211;-87
2022/11/07 09:14:20;;;;;;;5.23;2.60;;;13.30;98.90;;;;;;5054617;28;20195;-87
2022/11/07 09:16:47;;;;;;;6.07;3.00;;;13.30;98.80;;;;;;5043681;28;20193;-87
2022/11/07 09:19:14;;;;;;;5.77;3.17;;;13.30;97.10;;;;;;5051138;28;20221;-88
2022/11/07 09:21:44;;;;;;;5.30;2.50;;;13.40;96.20;;;;;;5054550;28;20202;-87
2022/11/07 09:24:10;;;;;;;3.23;2.43;;;13.50;97.50;;;;;;5032122;28;20195;-88
2022/11/07 09:26:36;;;;;;;3.60;2.60;;;13.50;95.80;;;;;;5044203;28;20236;-89
2022/11/07 09:29:03;;;;;;;4.73;2.90;;;13.40;95.50;;;;;;5041001;28;20213;-90
2022/11/07 09:31:29;;;;;;;9.53;3.30;;;13.50;95.20;;;;;;5033192;28;20191;-90
2022/11/07 09:33:55;;;;;;;4.27;2.50;;;13.40;97.00;;;;;;5030120;28;20193;-89
2022/11/07 09:36:23;;;;;;;2.50;2.30;;;13.50;96.30;;;;;;5041521;28;20658;-89
2022/11/07 09:38:49;;;;;;;3.20;2.37;;;13.50;96.40;;;;;;5042199;28;20423;-90
2022/11/07 09:41:36;;;;;;;5.13;2.70;;;13.50;94.10;;;;;;5042827;28;20213;-89
2022/11/07 09:44:11;;;;;;;4.97;2.90;;;13.60;94.20;;;;;;5049140;28;20190;-89
2022/11/07 09:46:54;;;;;;;4.90;2.97;;;13.70;93.40;;;;;;5035167;28;20299;-89
2022/11/07 09:49:37;;;;;;;4.03;2.60;;;13.50;94.40;;;;;;5039301;28;20209;-89
2022/11/07 09:52:28;;;;;;;3.43;2.43;;;13.60;93.90;;;;;;5033294;28;20199;-90
2022/11/07 09:55:07;;;;;;;4.50;2.70;;;13.50;93.40;;;;;;5037898;28;20235;-88
2022/11/07 09:57:35;;;;;;;5.87;3.10;;;13.70;93.00;;;;;;5037530;28;20216;-89
2022/11/07 10:00:10;;;;;;;6.07;2.73;;;13.80;92.20;;;;;;5061582;28;20245;-89
2022/11/07 10:02:42;;;;;;;5.90;2.83;;;13.80;91.70;;;;;;5030287;28;20219;-89
2022/11/07 10:05:23;;;;;;;3.93;2.73;;;13.90;92.50;;;;;;5030787;28;20256;-89
2022/11/07 10:08:08;;;;;;;4.03;2.83;;;13.90;91.70;;;;;;5030855;28;20238;-88
2022/11/07 10:10:46;;;;;;;4.33;2.40;;;14.00;91.60;;;;;;5033430;28;20223;-89
2022/11/07 10:13:12;;;;;;;3.93;2.77;;;14.20;89.60;;;;;;5038827;28;20213;-89
2022/11/07 10:15:47;;;;;;;4.90;2.70;;;14.30;88.90;;;;;;5057049;28;20187;-87
2022/11/07 10:18:41;;;;;;;7.77;2.90;;;14.20;91.40;;;;;;5064320;28;20208;-89
2022/11/07 10:21:15;;;;;;;4.80;2.93;;;14.20;91.90;;;;;;5035095;28;20306;-89
2022/11/07 10:24:13;;;;;;;2.97;2.33;;;14.30;91.50;;;;;;5047094;28;20198;-89
2022/11/07 10:26:43;;;;;;;3.53;2.50;;;14.20;90.80;;;;;;4986935;28;20225;-89
2022/11/07 10:29:13;;;;;;;3.30;2.67;;;14.20;92.70;;;;;;5050338;28;20298;-89
2022/11/07 10:31:53;;;;;;;4.57;2.67;;;14.10;93.70;;;;;;5047539;28;20181;-87
2022/11/07 10:34:22;;;;;;;32.30;25.53;;;14.30;92.60;;;;;;5050362;28;20188;-87
2022/11/07 10:36:49;;;;;;;3.53;3.00;;;14.40;91.70;;;;;;5046081;28;20193;-89
2022/11/07 10:39:18;;;;;;;11.23;8.90;;;14.50;92.40;;;;;;5031722;28;20224;-89
2022/11/07 10:42:08;;;;;;;5.10;3.57;;;14.60;89.50;;;;;;5054923;28;20322;-88
2022/11/07 10:44:37;;;;;;;4.60;2.97;;;14.60;87.90;;;;;;5059782;28;20176;-88
2022/11/07 10:47:17;;;;;;;5.33;2.53;;;14.40;88.70;;;;;;5048175;28;20215;-88
2022/11/07 10:49:57;;;;;;;9.43;7.97;;;14.50;89.50;;;;;;5062600;28;20191;-87
2022/11/07 10:52:24;;;;;;;7.83;4.53;;;14.40;91.20;;;;;;5045309;28;20189;-87
2022/11/07 10:54:50;;;;;;;6.90;3.23;;;14.40;90.30;;;;;;5042050;28;20191;-87
2022/11/07 10:57:22;;;;;;;5.23;2.53;;;14.40;91.90;;;;;;5031287;28;20186;-88
2022/11/07 10:59:51;;;;;;;9.33;3.00;;;14.30;91.70;;;;;;5035132;28;20198;-88
2022/11/07 11:02:22;;;;;;;4.97;2.80;;;14.40;90.70;;;;;;5038861;28;20191;-88
2022/11/07 11:04:54;;;;;;;3.10;2.30;;;14.40;91.70;;;;;;5055999;28;20200;-88
2022/11/07 11:07:25;;;;;;;6.73;3.90;;;14.30;92.10;;;;;;5038228;28;20210;-88
2022/11/07 11:09:55;;;;;;;3.20;2.90;;;14.50;91.20;;;;;;5038039;28;20215;-88
2022/11/07 11:12:26;;;;;;;2.87;2.60;;;14.50;92.40;;;;;;5047607;28;20180;-87
2022/11/07 11:15:11;;;;;;;4.80;2.73;;;14.60;90.60;;;;;;5030635;28;20244;-87
2022/11/07 11:17:38;;;;;;;4.37;2.60;;;14.50;92.30;;;;;;5058003;22;20309;-88
2022/11/07 11:20:05;;;;;;;3.60;3.20;;;14.70;89.70;;;;;;5035179;28;20264;-91
2022/11/07 11:22:38;;;;;;;5.00;2.67;;;14.90;89.30;;;;;;5042433;28;20248;-90
2022/11/07 11:25:17;;;;;;;4.67;2.70;;;15.00;87.90;;;;;;5039527;28;20208;-90
2022/11/07 11:27:45;;;;;;;6.37;3.20;;;14.90;89.30;;;;;;5007084;28;20224;-90
2022/11/07 11:30:15;;;;;;;4.73;2.60;;;14.80;89.30;;;;;;5029203;28;20192;-90
2022/11/07 11:32:59;;;;;;;3.93;2.57;;;14.90;89.50;;;;;;5025861;28;20187;-90
2022/11/07 11:35:39;;;;;;;4.40;3.03;;;14.80;91.10;;;;;;5040151;28;20511;-90
2022/11/07 11:38:41;;;;;;;4.03;2.60;;;14.70;91.70;;;;;;5046297;28;20217;-90
2022/11/07 11:41:27;;;;;;;4.37;2.63;;;15.10;88.00;;;;;;5044245;28;20679;-90
2022/11/07 11:44:13;;;;;;;6.13;2.30;;;15.60;84.90;;;;;;5037418;28;20687;-90
2022/11/07 11:47:20;;;;;;;3.93;2.60;;;15.90;85.10;;;;;;5034797;28;20238;-90
2022/11/07 11:49:52;;;;;;;5.70;2.90;;;16.20;80.50;;;;;;5032473;28;20199;-92
2022/11/07 11:52:24;;;;;;;4.93;2.87;;;16.30;79.30;;;;;;5044922;28;20199;-92
2022/11/07 11:54:52;;;;;;;4.63;3.00;;;16.60;79.80;;;;;;5044379;28;20557;-88
2022/11/07 11:57:24;;;;;;;5.13;2.60;;;16.60;76.60;;;;;;5047743;28;20188;-88
2022/11/07 12:00:09;;;;;;;3.87;2.57;;;16.60;76.70;;;;;;5027886;28;20187;-88
2022/11/07 12:02:47;;;;;;;5.40;2.77;;;17.00;74.20;;;;;;5043490;28;20405;-90
2022/11/07 12:05:28;;;;;;;3.07;2.50;;;17.20;73.90;;;;;;5035499;28;20302;-92
2022/11/07 12:08:02;;;;;;;3.70;2.70;;;17.70;69.30;;;;;;5015539;28;20219;-88
2022/11/07 12:10:45;;;;;;;3.83;2.87;;;17.60;71.00;;;;;;5038566;28;20239;-89
2022/11/07 12:13:20;;;;;;;5.90;2.70;;;17.50;69.80;;;;;;5037680;28;20173;-89
2022/11/07 12:16:04;;;;;;;4.93;2.80;;;17.40;71.70;;;;;;5028166;28;20260;-90
2022/11/07 12:18:39;;;;;;;5.17;3.03;;;17.30;72.80;;;;;;5046314;28;20206;-89
2022/11/07 12:21:13;;;;;;;4.90;3.00;;;17.40;72.60;;;;;;5033988;28;20571;-90
2022/11/07 12:24:06;;;;;;;4.10;2.60;;;17.30;70.50;;;;;;5032388;28;20227;-89
2022/11/07 12:26:40;;;;;;;5.00;2.50;;;16.80;72.50;;;;;;5044019;28;20236;-90
2022/11/07 12:29:11;;;;;;;2.73;2.53;;;16.40;75.00;;;;;;5040062;28;20270;-90
2022/11/07 12:32:04;;;;;;;5.70;2.80;;;16.20;76.50;;;;;;5045604;28;20468;-89
2022/11/07 12:34:56;;;;;;;4.27;2.77;;;15.90;77.70;;;;;;5047577;28;20181;-89
2022/11/07 12:37:37;;;;;;;4.67;2.90;;;16.10;78.40;;;;;;5053732;28;20187;-91
2022/11/07 12:40:37;;;;;;;5.77;2.60;;;16.40;74.20;;;;;;5043659;28;20188;-90
2022/11/07 12:43:20;;;;;;;3.27;2.43;;;17.10;72.30;;;;;;5036528;28;20315;-90
2022/11/07 12:46:05;;;;;;;3.13;2.50;;;17.20;71.80;;;;;;5041797;28;20451;-90
2022/11/07 12:48:48;;;;;;;4.30;2.73;;;17.30;71.20;;;;;;5034422;28;20222;-90
2022/11/07 12:51:34;;;;;;;4.93;2.67;;;17.30;71.10;;;;;;5049583;28;20239;-90
2022/11/07 12:54:19;;;;;;;4.07;2.70;;;17.20;69.40;;;;;;5041895;28;20185;-89
2022/11/07 12:56:47;;;;;;;4.80;2.97;;;17.20;72.20;;;;;;5027050;28;20195;-89
2022/11/07 12:59:26;;;;;;;7.57;2.60;;;16.90;71.80;;;;;;5049338;28;20271;-89
2022/11/07 13:02:17;;;;;;;7.43;2.43;;;16.80;73.60;;;;;;5038434;28;20196;-90
2022/11/07 13:04:58;;;;;;;2.40;2.20;;;16.80;74.00;;;;;;5034381;28;21362;-90
2022/11/07 13:07:32;;;;;;;4.50;2.50;;;16.70;72.50;;;;;;5032395;28;20207;-90